CheckWX is a tool to help pilots better visualize weather data.  It is not intended as a substitute for an official pre-flight weather briefing.

15:36:57 UTC

KLOT METAR
Lewis University Airport
Chicago/Romeoville, Illinois, USA
Current

42 mins ago

KLOT 241455Z AUTO 22014G17KT 10SM OVC011 22/20 A2965 RMK AO2 P0001 60005 T02150202
Observed
Jun-24 @ 14:55 UTC
Wind
  • 220° at 14 KTS
  • Gusting to 17 KTS
Visibility
10 SM
Flight Rules
MVFR
Cloud Levels
  • Overcast at 1,100' AGL
Temperature
22°C / 72°F
Dewpoint
20°C / 68°F
Humidity
88%
Altimeter
29.65" Hg
Pressure
1004.02 hPa
Current Rain
0.01"
Previous

1 hour ago

KLOT 241435Z AUTO 23011G18KT 10SM OVC011 21/20 A2966 RMK AO2 LTG DSNT W AND NW P0001 T02140202
Observed
Jun-24 @ 14:35 UTC
Wind
  • 230° at 11 KTS
  • Gusting to 18 KTS
Visibility
10 SM
Flight Rules
MVFR
Cloud Levels
  • Overcast at 1,100' AGL
Temperature
21°C / 70°F
Dewpoint
20°C / 68°F
Humidity
94%
Altimeter
29.66" Hg
Pressure
1004.42 hPa
Current Rain
0.01"
Previous

1 hour ago

KLOT 241415Z AUTO 22009KT 10SM OVC009 21/20 A2966 RMK AO2 T02110203
Observed
Jun-24 @ 14:15 UTC
Wind
  • 220° at 9 KTS
Visibility
10 SM
Flight Rules
IFR
Cloud Levels
  • Overcast at 900' AGL
Temperature
21°C / 70°F
Dewpoint
20°C / 68°F
Humidity
94%
Altimeter
29.66" Hg
Pressure
1004.42 hPa